Terminal Aerodrome Forecast
Issued by NWS Wilmington, OH

Current Version | Previous Version | Text Only | Print | Product List | Glossary Off
Versions: 1 2 3 4 5 6 7 8 9 10 11 12 13 14 15 16 17 18 19 20 21 22 23 24 25 26 27

925
FTUS41 KILN 160303 AAA
TAFCVG
TAF AMD
KCVG 160303Z 1603/1706 21012KT P6SM VCTS OVC025CB
      TEMPO 1603/1605 2SM SHRA OVC025
     FM160500 23014G22KT 2SM SHRA OVC015
     FM160900 31012G18KT 4SM SHRA OVC015
     FM161200 33012KT P6SM VCSH OVC015
     FM161600 34012KT P6SM BKN018
     FM162200 34008KT P6SM SCT025
     FM170000 VRB03KT P6SM SCT250=

USA.gov is the U.S. government's official web portal to all federal, state and local government web resources and services.